createdAt,value
2022-10-12T00:01:46.630Z,101367.31
2022-10-12T00:04:14.110Z,101375.00
2022-10-12T00:06:41.709Z,101370.59
2022-10-12T00:09:09.128Z,101371.81
2022-10-12T00:11:40.861Z,101374.84
2022-10-12T00:14:08.351Z,101377.59
2022-10-12T00:16:36.449Z,101376.28
2022-10-12T00:19:04.187Z,101373.78
2022-10-12T00:21:31.559Z,101377.53
2022-10-12T00:24:01.651Z,101369.78
2022-10-12T00:26:29.207Z,101371.28
2022-10-12T00:28:57.610Z,101373.41
2022-10-12T00:31:27.139Z,101382.09
2022-10-12T00:33:54.533Z,101378.53
2022-10-12T00:36:22.927Z,101382.03
2022-10-12T00:38:50.544Z,101382.84
2022-10-12T00:41:18.363Z,101386.50
2022-10-12T00:43:45.847Z,101379.88
2022-10-12T00:46:16.109Z,101389.25
2022-10-12T00:48:43.771Z,101383.72
2022-10-12T00:51:11.205Z,101381.31
2022-10-12T00:53:40.883Z,101382.44
2022-10-12T00:56:13.490Z,101381.47
2022-10-12T00:58:41.440Z,101380.91
2022-10-12T01:01:08.888Z,101382.63
2022-10-12T01:03:38.519Z,101383.31
2022-10-12T01:06:06.239Z,101381.22
2022-10-12T01:08:35.703Z,101380.13
2022-10-12T01:11:03.488Z,101374.88
2022-10-12T01:13:30.920Z,101377.94
2022-10-12T01:16:01.346Z,101386.53
2022-10-12T01:18:38.813Z,101382.09
2022-10-12T01:21:09.361Z,101374.25
2022-10-12T01:23:45.820Z,101374.47
2022-10-12T01:26:24.058Z,101372.78
2022-10-12T01:28:54.823Z,101379.38
2022-10-12T01:31:34.958Z,101372.19
2022-10-12T01:34:04.459Z,101376.44
2022-10-12T01:36:33.406Z,101374.13
2022-10-12T01:39:05.157Z,101378.13
2022-10-12T01:41:41.094Z,101381.13
2022-10-12T01:44:08.769Z,101376.28
2022-10-12T01:46:39.298Z,101378.59
2022-10-12T01:49:06.694Z,101381.53
2022-10-12T01:51:45.135Z,101381.97
2022-10-12T01:54:31.606Z,101381.53
2022-10-12T01:57:07.321Z,101389.22
2022-10-12T01:59:34.793Z,101387.94
2022-10-12T02:02:28.481Z,101387.09
2022-10-12T02:05:00.255Z,101381.97
2022-10-12T02:07:32.158Z,101379.00
2022-10-12T02:09:59.988Z,101385.59
2022-10-12T02:12:27.332Z,101382.44
2022-10-12T02:14:56.144Z,101382.88
2022-10-12T02:17:23.982Z,101384.34
2022-10-12T02:19:56.299Z,101380.09
2022-10-12T02:22:25.250Z,101384.53
2022-10-12T02:24:53.584Z,101391.34
2022-10-12T02:27:20.949Z,101388.59
2022-10-12T02:29:48.993Z,101396.66
2022-10-12T02:32:19.261Z,101393.91
2022-10-12T02:34:54.363Z,101397.50
2022-10-12T02:37:33.686Z,101396.44
2022-10-12T02:40:21.352Z,101396.03
2022-10-12T02:43:09.743Z,101400.47
2022-10-12T02:45:38.716Z,101403.88
2022-10-12T02:48:06.180Z,101400.25
2022-10-12T02:50:33.488Z,101384.53
2022-10-12T02:53:00.939Z,101392.81
2022-10-12T02:55:29.736Z,101393.66
2022-10-12T02:57:57.319Z,101395.38
2022-10-12T03:00:25.296Z,101390.25
2022-10-12T03:02:52.614Z,101389.22
2022-10-12T03:05:20.073Z,101397.69
2022-10-12T03:07:48.283Z,101400.91
2022-10-12T03:10:15.633Z,101400.88
2022-10-12T03:12:47.746Z,101394.75
2022-10-12T03:15:17.496Z,101400.03
2022-10-12T03:17:45.813Z,101401.53
2022-10-12T03:20:13.978Z,101407.03
2022-10-12T03:22:42.060Z,101407.44
2022-10-12T03:25:09.477Z,101417.00
2022-10-12T03:27:37.082Z,101412.09
2022-10-12T03:30:04.629Z,101412.34
2022-10-12T03:32:32.147Z,101409.34
2022-10-12T03:34:59.404Z,101414.47
2022-10-12T03:37:26.921Z,101410.41
2022-10-12T03:39:54.237Z,101410.84
2022-10-12T03:42:21.587Z,101413.34
2022-10-12T03:44:49.042Z,101409.34
2022-10-12T03:47:16.508Z,101402.97
2022-10-12T03:49:43.873Z,101399.56
2022-10-12T03:52:11.395Z,101406.81
2022-10-12T03:54:38.665Z,101408.22
2022-10-12T03:57:06.404Z,101405.72
2022-10-12T03:59:33.750Z,101409.06
2022-10-12T04:02:01.096Z,101402.28
2022-10-12T04:04:28.636Z,101400.56
2022-10-12T04:06:55.992Z,101407.38
2022-10-12T04:09:23.405Z,101404.41
2022-10-12T04:11:51.047Z,101406.59
2022-10-12T04:14:18.372Z,101412.94
2022-10-12T04:16:47.752Z,101406.13
2022-10-12T04:19:15.139Z,101402.06
2022-10-12T04:21:43.741Z,101409.28
2022-10-12T04:24:11.132Z,101412.28
2022-10-12T04:26:38.587Z,101415.91
2022-10-12T04:29:06.762Z,101415.28
2022-10-12T04:31:34.228Z,101421.44
2022-10-12T04:34:01.726Z,101429.28
2022-10-12T04:36:29.399Z,101431.66
2022-10-12T04:39:00.807Z,101426.94
2022-10-12T04:41:28.969Z,101429.91
2022-10-12T04:43:56.476Z,101427.16
2022-10-12T04:46:23.793Z,101427.41
2022-10-12T04:48:51.175Z,101432.31
2022-10-12T04:51:18.654Z,101431.66
2022-10-12T04:53:46.716Z,101430.63
2022-10-12T04:56:14.036Z,101437.63
2022-10-12T04:58:41.509Z,101435.06
2022-10-12T16:50:40.518Z,101406.19
2022-10-12T16:53:08.118Z,101411.22
2022-10-12T16:55:37.095Z,101409.19
2022-10-12T16:58:04.494Z,101407.97
2022-10-12T17:00:33.655Z,101408.56
2022-10-12T17:03:01.056Z,101415.25
2022-10-12T17:05:28.611Z,101425.28
2022-10-12T17:07:56.818Z,101418.84
2022-10-12T17:10:24.229Z,101421.53
2022-10-12T17:12:51.550Z,101421.69
2022-10-12T17:15:19.189Z,101413.97
2022-10-12T17:17:46.807Z,101411.13
2022-10-12T17:20:14.273Z,101408.69
2022-10-12T17:22:42.900Z,101413.59
2022-10-12T17:25:10.427Z,101400.91
2022-10-12T17:27:39.319Z,101411.72
2022-10-12T17:30:06.989Z,101404.19
2022-10-12T17:32:37.902Z,101406.78
2022-10-12T17:35:06.212Z,101409.63
2022-10-12T17:37:34.353Z,101418.41
2022-10-12T17:40:06.137Z,101399.91
2022-10-12T17:42:34.701Z,101403.19
2022-10-12T17:45:02.165Z,101397.47
2022-10-12T17:47:29.645Z,101410.41
2022-10-12T17:49:57.389Z,101406.84
2022-10-12T17:52:24.721Z,101406.38
2022-10-12T17:54:52.086Z,101410.28
2022-10-12T17:57:19.949Z,101409.44
2022-10-12T17:59:47.746Z,101410.47
2022-10-12T18:02:15.726Z,101417.88
2022-10-12T18:04:43.129Z,101415.94
2022-10-12T18:07:11.214Z,101410.38
2022-10-12T18:09:38.737Z,101414.88
2022-10-12T18:12:06.298Z,101414.31
2022-10-12T18:14:34.965Z,101419.22
2022-10-12T18:17:02.333Z,101406.97
2022-10-12T18:19:32.691Z,101417.13
2022-10-12T18:22:00.656Z,101420.81
2022-10-12T18:24:28.318Z,101421.59
2022-10-12T18:26:55.691Z,101418.44
2022-10-12T18:29:23.022Z,101427.41
2022-10-12T18:31:51.092Z,101428.53
2022-10-12T18:34:18.461Z,101429.88
2022-10-12T18:36:45.724Z,101439.38
2022-10-12T18:39:13.546Z,101430.78
2022-10-12T18:41:40.940Z,101431.09
2022-10-12T18:44:09.472Z,101439.06
2022-10-12T18:46:37.514Z,101436.56
2022-10-12T18:49:07.050Z,101438.53
2022-10-12T18:51:35.749Z,101445.47
2022-10-12T18:54:03.354Z,101442.75
2022-10-12T18:56:31.350Z,101440.06
2022-10-12T18:59:00.045Z,101443.41
2022-10-12T19:01:27.715Z,101447.25
2022-10-12T19:03:56.081Z,101443.91
2022-10-12T19:06:24.832Z,101446.97
2022-10-12T19:08:54.526Z,101455.41
2022-10-12T19:11:22.348Z,101445.22
2022-10-12T19:13:53.390Z,101451.09
2022-10-12T19:16:21.554Z,101450.38
2022-10-12T19:18:54.527Z,101460.84
2022-10-12T19:21:22.210Z,101464.69
2022-10-12T19:23:49.842Z,101457.03
2022-10-12T19:26:18.420Z,101465.56
2022-10-12T19:28:47.062Z,101467.84
2022-10-12T19:31:16.040Z,101462.31
2022-10-12T19:33:43.394Z,101461.59
2022-10-12T19:36:11.030Z,101459.44
2022-10-12T19:38:39.264Z,101468.22
2022-10-12T19:41:06.830Z,101473.44
2022-10-12T19:43:34.489Z,101471.53
2022-10-12T19:46:02.600Z,101466.09
2022-10-12T19:48:30.095Z,101469.25
2022-10-12T19:51:00.711Z,101467.19
2022-10-12T19:53:28.577Z,101460.75
2022-10-12T19:56:06.314Z,101473.06
2022-10-12T19:58:33.905Z,101465.38
2022-10-12T20:01:02.390Z,101474.94
2022-10-12T20:03:29.954Z,101473.19
2022-10-12T20:05:57.563Z,101471.66
2022-10-12T20:08:25.630Z,101478.78
2022-10-12T20:10:53.404Z,101479.66
2022-10-12T20:13:21.140Z,101485.69
2022-10-12T20:15:51.745Z,101480.00
2022-10-12T20:18:19.727Z,101482.06
2022-10-12T20:20:49.089Z,101479.88
2022-10-12T20:23:17.020Z,101482.31
2022-10-12T20:25:44.894Z,101487.88
2022-10-12T20:28:12.882Z,101487.63
2022-10-12T20:30:41.089Z,101488.72
2022-10-12T20:33:08.576Z,101491.50
2022-10-12T20:35:36.315Z,101493.19
2022-10-12T20:38:03.788Z,101492.59
2022-10-12T20:40:31.806Z,101493.47
2022-10-12T20:42:59.955Z,101484.25
2022-10-12T20:45:27.316Z,101489.91
2022-10-12T20:47:54.682Z,101486.41
2022-10-12T20:50:22.174Z,101485.19
2022-10-12T20:52:49.806Z,101485.69
2022-10-12T20:55:17.183Z,101480.13
2022-10-12T20:57:45.568Z,101490.25
2022-10-12T21:00:13.250Z,101481.56
2022-10-12T21:02:40.872Z,101485.47
2022-10-12T21:05:08.841Z,101489.19
2022-10-12T21:07:36.272Z,101482.31
2022-10-12T21:10:03.915Z,101481.34
2022-10-12T21:12:31.268Z,101482.31
2022-10-12T21:14:58.646Z,101485.28
2022-10-12T21:17:26.023Z,101485.69
2022-10-12T21:19:56.271Z,101488.25
2022-10-12T21:22:23.708Z,101482.63
2022-10-12T21:24:51.488Z,101487.94
2022-10-12T21:27:19.070Z,101492.31
2022-10-12T21:29:46.543Z,101488.69
2022-10-12T21:32:13.970Z,101497.03
2022-10-12T21:34:42.065Z,101492.47
2022-10-12T21:37:09.402Z,101485.69
2022-10-12T21:39:36.942Z,101495.91
2022-10-12T21:42:04.565Z,101497.00
2022-10-12T21:44:32.018Z,101488.25
2022-10-12T21:46:59.496Z,101486.59
2022-10-12T21:49:27.099Z,101497.66
2022-10-12T21:51:54.469Z,101496.19
2022-10-12T21:54:21.831Z,101500.22
2022-10-12T21:56:49.285Z,101505.63
2022-10-12T21:59:18.030Z,101503.63
2022-10-12T22:01:45.300Z,101512.06
2022-10-12T22:04:13.858Z,101509.38
2022-10-12T22:06:41.382Z,101500.91
2022-10-12T22:09:09.571Z,101507.72
2022-10-12T22:11:37.433Z,101501.44
2022-10-12T22:14:09.870Z,101506.97
2022-10-12T22:16:37.336Z,101505.31
2022-10-12T22:19:06.559Z,101500.03
2022-10-12T22:21:34.136Z,101503.47
2022-10-12T22:24:02.755Z,101504.50
2022-10-12T22:26:30.678Z,101504.97
2022-10-12T22:28:58.314Z,101507.91
2022-10-12T22:31:25.795Z,101501.75
2022-10-12T22:33:53.277Z,101493.03
2022-10-12T22:36:20.679Z,101499.88
2022-10-12T22:38:48.851Z,101496.91
2022-10-12T22:41:16.852Z,101491.28
2022-10-12T22:43:50.003Z,101502.53
2022-10-12T22:46:17.663Z,101506.31
2022-10-12T22:48:45.158Z,101500.66
2022-10-12T22:51:16.804Z,101500.84
2022-10-12T22:53:45.115Z,101513.88
2022-10-12T22:56:16.387Z,101504.94
2022-10-12T22:58:44.009Z,101497.09
2022-10-12T23:01:12.579Z,101498.09
2022-10-12T23:03:40.264Z,101502.44
2022-10-12T23:06:12.151Z,101500.09
2022-10-12T23:08:41.554Z,101495.66
2022-10-12T23:11:12.772Z,101498.22
2022-10-12T23:13:41.311Z,101500.34
2022-10-12T23:16:12.722Z,101496.75
2022-10-12T23:18:40.141Z,101501.28
2022-10-12T23:21:08.251Z,101498.06
2022-10-12T23:23:36.102Z,101501.91
2022-10-12T23:26:10.175Z,101503.19
2022-10-12T23:28:38.118Z,101509.75
2022-10-12T23:31:09.380Z,101507.00
2022-10-12T23:33:37.037Z,101502.63
2022-10-12T23:36:05.520Z,101508.41
2022-10-12T23:38:33.177Z,101507.25
2022-10-12T23:41:00.785Z,101504.56
2022-10-12T23:43:28.144Z,101509.09
2022-10-12T23:45:55.595Z,101510.41
2022-10-12T23:48:23.328Z,101514.09
2022-10-12T23:50:52.050Z,101500.16
2022-10-12T23:53:20.498Z,101511.72
2022-10-12T23:55:48.196Z,101501.03
2022-10-12T23:58:15.685Z,101503.34
